Time;durP1;ratioP1;P1;durP2;ratioP2;P2;SDS_P1;SDS_P2;PMS_P1;PMS_P2;Temp;Humidity;BMP_temperature;BMP_pressure;BME280_temperature;BME280_humidity;BME280_pressure;Samples;Min_cycle;Max_cycle;Signal;HPM_P1;HPM_P2
2022/03/19 00:01:33;;;;;;;7.03;4.28;;;;;;;14.46;34.63;103928.31;5053669;28;20076;-78
2022/03/19 00:04:00;;;;;;;5.88;4.25;;;;;;;14.43;34.87;103926.59;5037144;28;20053;-78
2022/03/19 00:06:28;;;;;;;5.78;4.32;;;;;;;14.43;34.93;103926.59;5034252;28;20119;-78
2022/03/19 00:08:55;;;;;;;8.13;4.80;;;;;;;14.39;35.01;103919.44;5043540;28;20091;-78
2022/03/19 00:11:23;;;;;;;6.70;4.80;;;;;;;14.37;35.23;103917.66;5037323;28;20083;-78
2022/03/19 00:13:50;;;;;;;8.15;4.65;;;;;;;14.34;35.00;103917.75;5050548;28;20106;-77
2022/03/19 00:16:17;;;;;;;7.43;4.63;;;;;;;14.28;35.21;103916.13;5051787;28;20060;-78
2022/03/19 00:18:45;;;;;;;6.05;4.57;;;;;;;14.25;35.17;103916.22;5032470;28;20049;-78
2022/03/19 00:21:11;;;;;;;6.63;4.57;;;;;;;14.20;35.24;103920.06;5037205;28;20049;-78
2022/03/19 00:23:38;;;;;;;7.50;4.88;;;;;;;14.17;35.51;103915.59;5047609;28;20052;-77
2022/03/19 00:26:06;;;;;;;8.02;5.07;;;;;;;14.12;35.57;103912.13;5055494;28;20088;-77
2022/03/19 00:28:34;;;;;;;7.88;4.93;;;;;;;14.08;35.51;103922.25;5051695;28;20371;-77
2022/03/19 00:31:01;;;;;;;7.57;4.88;;;;;;;14.03;35.75;103916.06;5035832;28;20053;-78
2022/03/19 00:33:28;;;;;;;7.95;5.38;;;;;;;13.98;35.62;103911.69;5053218;28;20053;-78
2022/03/19 00:35:54;;;;;;;7.80;4.90;;;;;;;13.93;35.84;103911.84;5050984;28;20420;-78
2022/03/19 00:38:24;;;;;;;8.07;5.20;;;;;;;13.89;35.78;103907.44;5025707;28;20057;-78
2022/03/19 00:40:51;;;;;;;9.35;4.72;;;;;;;13.86;35.95;103910.25;5039274;28;20152;-78
2022/03/19 00:43:22;;;;;;;7.07;4.85;;;;;;;13.84;35.87;103905.75;5037949;28;20049;-78
2022/03/19 00:45:49;;;;;;;7.70;4.72;;;;;;;13.83;35.76;103909.47;5040343;28;20041;-78
2022/03/19 00:48:17;;;;;;;7.32;4.68;;;;;;;13.81;36.27;103905.88;5049643;28;20072;-78
2022/03/19 00:50:44;;;;;;;7.80;4.75;;;;;;;13.80;36.12;103906.81;5052054;28;20045;-78
2022/03/19 00:53:11;;;;;;;7.75;4.85;;;;;;;13.77;36.14;103905.06;5044420;28;20435;-77
2022/03/19 00:55:38;;;;;;;7.25;4.80;;;;;;;13.76;36.08;103896.91;5048379;28;20511;-78
2022/03/19 00:58:05;;;;;;;7.22;4.90;;;;;;;13.73;36.03;103895.22;5050621;28;20499;-78
2022/03/19 01:04:19;;;;;;;10.40;6.13;;;;;;;13.61;36.37;103884.66;5043677;28;20048;-78
2022/03/19 01:06:45;;;;;;;9.10;5.88;;;;;;;13.61;36.35;103891.00;5050869;28;20131;-78
2022/03/19 01:09:12;;;;;;;8.20;5.60;;;;;;;13.62;36.00;103883.72;5050673;28;20083;-78
2022/03/19 01:11:39;;;;;;;9.50;5.57;;;;;;;13.60;36.43;103889.22;5050710;28;20048;-77
2022/03/19 01:14:06;;;;;;;6.60;4.50;;;;;;;13.60;36.29;103882.88;5031873;28;20083;-78
2022/03/19 01:16:32;;;;;;;7.75;5.10;;;;;;;13.60;36.14;103880.13;5037518;28;20049;-78
2022/03/19 01:19:00;;;;;;;8.07;5.18;;;;;;;13.59;36.36;103876.50;5050544;28;20080;-77
2022/03/19 01:21:26;;;;;;;7.93;4.93;;;;;;;13.59;36.74;103875.63;5051366;28;20045;-78
2022/03/19 01:23:53;;;;;;;7.40;4.32;;;;;;;13.57;36.44;103878.41;5033051;28;20080;-78
2022/03/19 01:26:20;;;;;;;7.90;4.60;;;;;;;13.56;36.64;103886.66;5033796;28;20052;-77
2022/03/19 01:28:47;;;;;;;7.78;5.00;;;;;;;13.55;36.39;103885.75;5039222;28;20068;-78
2022/03/19 01:31:13;;;;;;;7.85;4.85;;;;;;;13.55;36.51;103877.56;5045119;28;20045;-77
2022/03/19 01:33:41;;;;;;;7.88;4.63;;;;;;;13.55;36.43;103882.13;5044392;28;20530;-77
2022/03/19 01:36:07;;;;;;;8.35;5.30;;;;;;;13.53;36.50;103875.81;5045770;28;20514;-77
2022/03/19 01:38:34;;;;;;;8.30;4.70;;;;;;;13.53;36.66;103871.25;5043466;28;20557;-77
2022/03/19 01:41:01;;;;;;;7.68;4.35;;;;;;;13.52;36.76;103879.47;5043942;28;20048;-77
2022/03/19 01:43:28;;;;;;;9.05;4.60;;;;;;;13.50;36.70;103879.56;5050544;28;20056;-78
2022/03/19 01:45:55;;;;;;;7.45;4.45;;;;;;;13.49;36.67;103865.94;5035700;28;20123;-77
2022/03/19 01:48:22;;;;;;;7.97;4.70;;;;;;;13.47;36.61;103871.44;5049569;28;20053;-78
2022/03/19 01:50:49;;;;;;;8.45;4.78;;;;;;;13.45;36.55;103867.88;5047683;28;20044;-77
2022/03/19 01:53:16;;;;;;;6.75;4.70;;;;;;;13.42;36.74;103856.16;5031923;28;20040;-77
2022/03/19 01:55:42;;;;;;;7.65;5.10;;;;;;;13.40;36.95;103855.31;5048057;28;20400;-78
2022/03/19 01:58:10;;;;;;;8.10;5.22;;;;;;;13.37;37.02;103855.41;5031864;28;20069;-78
2022/03/19 02:00:37;;;;;;;7.60;4.88;;;;;;;13.36;36.91;103856.34;5049635;28;20503;-78
2022/03/19 02:03:05;;;;;;;6.60;4.32;;;;;;;13.33;36.95;103852.78;5040958;28;20044;-78
2022/03/19 02:05:32;;;;;;;7.22;4.63;;;;;;;13.29;36.99;103845.63;5048558;28;20049;-77
2022/03/19 02:07:59;;;;;;;8.27;4.30;;;;;;;13.30;36.85;103860.16;5049901;28;20056;-77
2022/03/19 02:10:29;;;;;;;6.13;4.07;;;;;;;13.30;37.17;103852.88;5048165;28;20083;-77
2022/03/19 02:12:56;;;;;;;7.15;4.78;;;;;;;13.30;37.00;103850.13;5044242;28;20120;-77
2022/03/19 02:15:23;;;;;;;7.05;4.10;;;;;;;13.30;37.10;103860.16;5046968;28;20092;-77
2022/03/19 02:17:50;;;;;;;9.20;5.03;;;;;;;13.29;37.21;103861.09;5034911;28;20061;-77
2022/03/19 02:20:18;;;;;;;6.75;4.13;;;;;;;13.29;36.83;103855.63;5039077;28;20432;-77
2022/03/19 02:25:34;;;;;;;7.05;4.50;;;;;;;13.27;36.77;103843.88;5048568;28;20056;-77
2022/03/19 02:25:35;;;;;;;6.57;4.38;;;;;;;13.23;37.14;103840.34;5044505;28;20072;-78
2022/03/19 02:28:04;;;;;;;5.95;4.25;;;;;;;13.22;36.97;103852.22;5049548;28;20048;-77
2022/03/19 02:30:32;;;;;;;7.95;4.78;;;;;;;13.20;37.01;103845.91;5029358;28;20042;-77
2022/03/19 02:33:00;;;;;;;7.43;4.90;;;;;;;13.15;37.20;103838.78;5041703;28;20059;-77
2022/03/19 02:35:27;;;;;;;8.02;4.65;;;;;;;13.13;37.23;103837.91;5035034;28;20049;-77
2022/03/19 02:37:54;;;;;;;6.97;4.57;;;;;;;13.10;37.34;103841.63;5050183;28;20053;-77
2022/03/19 02:40:21;;;;;;;7.90;4.28;;;;;;;13.08;37.50;103840.78;5033131;28;20801;-77
2022/03/19 02:42:51;;;;;;;9.77;4.38;;;;;;;13.08;37.52;103831.72;5050581;28;20068;-77
2022/03/19 02:45:19;;;;;;;6.70;4.32;;;;;;;13.05;37.18;103834.50;5044369;28;20053;-77
2022/03/19 02:47:58;;;;;;;7.20;4.35;;;;;;;13.03;37.33;103831.81;5049355;28;20371;-77
2022/03/19 02:50:32;;;;;;;6.63;4.32;;;;;;;13.06;37.34;103839.03;5047450;28;20059;-77
2022/03/19 02:53:02;;;;;;;7.28;3.90;;;;;;;13.05;37.25;103829.97;5030356;28;20412;-77
2022/03/19 02:55:37;;;;;;;7.63;4.20;;;;;;;13.09;37.51;103825.31;5047556;28;20048;-77
2022/03/19 02:58:06;;;;;;;8.07;4.45;;;;;;;13.08;37.03;103821.69;5044876;28;20168;-77
2022/03/19 03:00:34;;;;;;;7.45;4.20;;;;;;;13.08;37.35;103823.53;5045087;28;20053;-77
2022/03/19 03:03:04;;;;;;;10.23;4.50;;;;;;;13.10;37.08;103813.44;5048952;28;20045;-78
2022/03/19 03:05:33;;;;;;;8.88;4.88;;;;;;;13.12;36.98;103814.28;5044580;28;20087;-78
2022/03/19 03:08:01;;;;;;;7.75;4.07;;;;;;;13.13;37.32;103814.28;5047942;28;20488;-78
2022/03/19 03:10:29;;;;;;;7.97;4.45;;;;;;;13.14;37.20;103816.06;5058151;28;20041;-78
2022/03/19 03:12:55;;;;;;;6.90;3.97;;;;;;;13.15;37.28;103817.88;5070122;28;20035;-78
2022/03/19 03:15:23;;;;;;;8.45;4.05;;;;;;;13.17;37.04;103815.09;5060623;28;20047;-78
2022/03/19 03:17:50;;;;;;;6.82;4.32;;;;;;;13.15;36.87;103814.25;5051187;28;20416;-77
2022/03/19 03:20:17;;;;;;;9.25;4.18;;;;;;;13.15;37.07;103809.69;5045209;28;20135;-77
2022/03/19 03:22:44;;;;;;;8.57;4.80;;;;;;;13.17;37.12;103812.38;5048521;28;20099;-77
2022/03/19 03:25:11;;;;;;;8.20;4.25;;;;;;;13.16;37.18;103816.94;5037417;28;20439;-77
2022/03/19 03:27:38;;;;;;;6.93;4.35;;;;;;;13.18;36.95;103808.69;5049407;28;20052;-77
2022/03/19 03:30:06;;;;;;;7.97;4.68;;;;;;;13.19;36.96;103808.63;5048051;28;20045;-77
2022/03/19 03:32:32;;;;;;;7.72;4.40;;;;;;;13.19;37.08;103805.00;5044501;28;20056;-77
2022/03/19 03:34:59;;;;;;;9.18;4.45;;;;;;;13.18;37.04;103806.84;5043082;28;20079;-77
2022/03/19 03:37:26;;;;;;;7.45;4.07;;;;;;;13.18;36.88;103815.03;5049002;28;20053;-77
2022/03/19 03:39:53;;;;;;;7.45;4.05;;;;;;;13.18;36.84;103814.13;5045602;28;20045;-76
2022/03/19 03:42:20;;;;;;;7.85;4.25;;;;;;;13.17;36.93;103812.38;5045933;28;20053;-77
2022/03/19 03:44:46;;;;;;;9.50;4.25;;;;;;;13.17;37.04;103815.09;5047394;28;20053;-77
2022/03/19 03:47:13;;;;;;;6.82;4.00;;;;;;;13.16;37.21;103803.28;5042450;28;20092;-77
2022/03/19 03:49:40;;;;;;;8.07;4.45;;;;;;;13.16;36.90;103807.84;5037422;28;20087;-77
2022/03/19 03:52:07;;;;;;;5.88;3.97;;;;;;;13.17;37.02;103812.38;5048672;28;20061;-77
2022/03/19 03:54:34;;;;;;;6.75;4.20;;;;;;;13.18;37.12;103814.13;5048136;28;20522;-77
2022/03/19 03:57:02;;;;;;;8.85;4.22;;;;;;;13.17;37.02;103805.09;5052162;28;20053;-77
2022/03/19 03:59:30;;;;;;;5.72;3.83;;;;;;;13.18;37.06;103804.13;5048663;28;20061;-77
2022/03/19 04:01:57;;;;;;;7.25;4.40;;;;;;;13.18;37.20;103800.50;5044615;28;20079;-77
2022/03/19 04:04:25;;;;;;;7.25;4.00;;;;;;;13.16;36.85;103803.28;5036744;28;20136;-77
2022/03/19 04:06:52;;;;;;;5.97;3.80;;;;;;;13.17;37.31;103804.19;5042854;28;20053;-77
2022/03/19 04:09:19;;;;;;;6.25;4.03;;;;;;;13.15;37.06;103795.16;5047038;28;20078;-77
2022/03/19 04:11:45;;;;;;;8.43;3.75;;;;;;;13.16;36.96;103799.66;5048656;28;20053;-77
2022/03/19 04:14:12;;;;;;;5.95;3.92;;;;;;;13.16;36.82;103797.84;5030808;28;20408;-77
2022/03/19 04:16:39;;;;;;;7.80;4.68;;;;;;;13.17;37.17;103793.28;5031315;28;20041;-77
2022/03/19 04:19:06;;;;;;;5.43;3.60;;;;;;;13.17;36.96;103787.81;5047896;28;20049;-77
2022/03/19 04:21:33;;;;;;;6.80;3.92;;;;;;;13.17;37.18;103782.38;5031117;28;20076;-76
2022/03/19 04:24:00;;;;;;;5.95;3.75;;;;;;;13.18;36.90;103790.47;5049911;28;20057;-77
2022/03/19 04:26:27;;;;;;;6.55;3.85;;;;;;;13.19;37.11;103789.53;5051415;28;20045;-77
2022/03/19 04:28:54;;;;;;;7.20;3.80;;;;;;;13.20;36.97;103783.16;5050448;28;20041;-77
2022/03/19 04:31:20;;;;;;;8.23;3.88;;;;;;;13.21;37.02;103787.66;5050853;28;20072;-77
2022/03/19 04:33:47;;;;;;;6.68;4.20;;;;;;;13.22;36.84;103791.28;5050568;28;20492;-77
2022/03/19 04:36:30;;;;;;;5.88;3.53;;;;;;;13.22;36.66;103799.47;5051402;28;20112;-77
2022/03/19 04:39:02;;;;;;;6.15;3.42;;;;;;;13.20;36.85;103791.31;5040321;28;20046;-77
2022/03/19 04:41:30;;;;;;;7.07;3.63;;;;;;;13.19;36.69;103795.00;5052798;28;20045;-77
2022/03/19 04:43:57;;;;;;;7.82;3.95;;;;;;;13.20;36.61;103791.31;5049912;28;20057;-77
2022/03/19 04:46:24;;;;;;;7.05;3.85;;;;;;;13.21;36.77;103794.94;5051240;28;20428;-76
2022/03/19 04:48:52;;;;;;;6.32;4.07;;;;;;;13.20;36.57;103795.88;5046546;28;20096;-77
2022/03/19 04:51:21;;;;;;;7.22;4.30;;;;;;;13.19;36.75;103797.72;5045769;28;20052;-77
2022/03/19 04:53:50;;;;;;;7.13;3.90;;;;;;;13.17;36.88;103802.34;5034196;28;20053;-77
2022/03/19 04:56:19;;;;;;;5.93;3.63;;;;;;;13.17;37.02;103782.38;5051630;28;20044;-77
2022/03/19 04:58:46;;;;;;;6.35;3.75;;;;;;;13.15;36.84;103786.97;5046974;28;20390;-77
2022/03/19 05:01:13;;;;;;;6.70;3.88;;;;;;;13.12;36.77;103790.63;5051634;28;20127;-77
2022/03/19 05:03:40;;;;;;;6.80;3.65;;;;;;;13.11;36.80;103788.84;5036528;28;20134;-77
2022/03/19 05:06:07;;;;;;;6.78;4.35;;;;;;;13.10;36.60;103797.06;5050606;28;20052;-77
2022/03/19 05:08:34;;;;;;;6.35;3.58;;;;;;;13.07;36.43;103797.19;5050510;28;20060;-77
2022/03/19 05:11:12;;;;;;;7.20;3.95;;;;;;;13.06;36.59;103804.47;5039155;28;20487;-77
2022/03/19 05:13:48;;;;;;;7.20;3.83;;;;;;;13.05;36.81;103801.78;5027346;28;20492;-77
2022/03/19 05:16:15;;;;;;;7.05;3.75;;;;;;;13.00;36.38;103801.03;5044081;28;20048;-77
2022/03/19 05:18:42;;;;;;;6.15;3.92;;;;;;;12.98;36.45;103806.53;5050302;28;20047;-79
2022/03/19 05:21:12;;;;;;;7.95;3.65;;;;;;;12.95;36.61;103796.59;5033928;28;20048;-77
2022/03/19 05:23:45;;;;;;;7.18;4.40;;;;;;;12.95;36.81;103807.50;5048914;28;20507;-76
2022/03/19 05:26:17;;;;;;;7.13;4.03;;;;;;;12.89;36.70;103796.78;5045414;28;20060;-77
2022/03/19 05:28:43;;;;;;;7.15;4.03;;;;;;;12.88;36.31;103792.28;5039726;28;20393;-77
2022/03/19 05:31:30;;;;;;;6.43;3.97;;;;;;;12.87;36.53;103800.50;5036512;28;20049;-77
2022/03/19 05:36:43;;;;;;;8.18;4.63;;;;;;;12.81;36.92;103804.31;5050640;28;20083;-77
2022/03/19 05:39:10;;;;;;;6.00;3.67;;;;;;;12.79;36.67;103808.00;5049482;28;20045;-77
2022/03/19 05:41:37;;;;;;;6.18;3.92;;;;;;;12.77;36.60;103809.88;5051627;28;20111;-77
2022/03/19 05:44:04;;;;;;;6.25;4.13;;;;;;;12.76;36.57;103810.84;5035283;28;20106;-77
2022/03/19 05:46:31;;;;;;;5.78;4.25;;;;;;;12.73;36.94;103811.81;5050833;28;20122;-77
2022/03/19 05:48:57;;;;;;;7.07;4.20;;;;;;;12.71;36.78;103813.69;5045377;28;20063;-77
2022/03/19 05:51:26;;;;;;;5.70;4.18;;;;;;;12.71;36.95;103808.22;5051482;28;20037;-77
2022/03/19 05:53:53;;;;;;;7.40;4.07;;;;;;;12.70;36.83;103805.53;5040539;28;20045;-77
2022/03/19 05:56:20;;;;;;;6.15;4.50;;;;;;;12.69;36.95;103818.28;5035183;28;20056;-77
2022/03/19 05:58:47;;;;;;;7.70;4.38;;;;;;;12.68;36.88;103811.06;5044795;28;20051;-77
2022/03/19 06:01:14;;;;;;;5.72;4.25;;;;;;;12.67;36.90;103808.38;5042554;28;20050;-77
2022/03/19 06:03:41;;;;;;;7.63;4.47;;;;;;;12.65;36.96;103808.41;5047963;28;20057;-76
2022/03/19 06:06:08;;;;;;;6.40;4.30;;;;;;;12.65;36.91;103815.69;5050017;28;20458;-77
2022/03/19 06:08:35;;;;;;;6.10;4.13;;;;;;;12.63;37.10;103823.03;5048722;28;20052;-77
2022/03/19 06:11:02;;;;;;;7.65;4.55;;;;;;;12.62;37.07;103810.31;5048192;28;20057;-77
2022/03/19 06:13:28;;;;;;;7.85;4.70;;;;;;;12.60;37.20;103809.50;5032016;28;20075;-77
2022/03/19 06:15:55;;;;;;;7.97;4.60;;;;;;;12.61;37.50;103813.97;5043883;28;20045;-77
2022/03/19 06:18:22;;;;;;;8.77;4.65;;;;;;;12.61;37.50;103812.16;5045586;28;20056;-77
2022/03/19 06:20:49;;;;;;;7.78;4.97;;;;;;;12.63;37.88;103807.56;5049739;28;20045;-77
2022/03/19 06:23:16;;;;;;;6.10;3.78;;;;;;;12.68;37.73;103816.53;5047465;28;20106;-77
2022/03/19 06:25:42;;;;;;;7.93;4.68;;;;;;;12.71;37.71;103801.88;5049287;28;20056;-77
2022/03/19 06:28:09;;;;;;;7.43;4.65;;;;;;;12.75;37.67;103807.22;5033238;28;20478;-77
2022/03/19 06:30:37;;;;;;;6.82;4.30;;;;;;;12.78;37.60;103806.22;5047318;28;20052;-77
2022/03/19 06:33:07;;;;;;;6.32;4.50;;;;;;;12.80;37.60;103804.34;5050434;28;20059;-77
2022/03/19 06:38:25;;;;;;;7.07;4.30;;;;;;;12.83;37.54;103812.44;5044787;28;20049;-78
2022/03/19 06:40:51;;;;;;;7.35;3.92;;;;;;;12.85;37.76;103805.09;5050067;28;20049;-78
2022/03/19 06:43:18;;;;;;;6.55;4.60;;;;;;;12.89;37.95;103804.97;5047918;28;20052;-78
2022/03/19 06:45:45;;;;;;;7.93;4.90;;;;;;;12.94;38.21;103807.56;5047244;28;20044;-77
2022/03/19 06:48:12;;;;;;;6.38;4.20;;;;;;;13.01;38.40;103808.28;5048998;28;20056;-79
2022/03/19 06:50:39;;;;;;;8.40;4.75;;;;;;;13.09;38.98;103808.94;5050238;28;20052;-78
2022/03/19 06:53:06;;;;;;;6.18;3.80;;;;;;;13.18;38.76;103804.13;5049997;28;20099;-78
2022/03/19 06:55:33;;;;;;;7.38;4.32;;;;;;;13.32;39.23;103798.25;5014446;28;20053;-79
2022/03/19 06:58:00;;;;;;;6.93;4.20;;;;;;;13.45;39.52;103801.47;5033185;28;20060;-78
2022/03/19 07:00:27;;;;;;;8.85;4.32;;;;;;;13.61;39.93;103798.19;5048690;28;20052;-79
2022/03/19 07:02:55;;;;;;;6.80;4.03;;;;;;;13.81;40.03;103799.38;5058163;28;20041;-79
2022/03/19 07:05:27;;;;;;;6.20;3.90;;;;;;;14.04;39.88;103799.47;5051326;28;20049;-78
2022/03/19 07:07:56;;;;;;;7.47;3.80;;;;;;;14.25;40.54;103806.03;5061065;28;20055;-78
2022/03/19 07:10:23;;;;;;;7.65;5.18;;;;;;;14.53;40.32;103803.22;5049951;28;20134;-79
2022/03/19 07:12:52;;;;;;;6.15;3.80;;;;;;;14.81;40.30;103807.63;5037460;28;20079;-79
2022/03/19 07:15:21;;;;;;;5.68;3.90;;;;;;;15.09;39.51;103801.97;4999717;28;20519;-79
2022/03/19 07:17:50;;;;;;;6.15;4.25;;;;;;;15.37;39.20;103806.38;5050010;28;20052;-79
2022/03/19 07:20:19;;;;;;;6.80;4.07;;;;;;;15.65;38.63;103801.56;5048531;28;20048;-79
2022/03/19 07:23:06;;;;;;;5.35;3.70;;;;;;;15.89;36.87;103799.69;5039218;28;20128;-78
2022/03/19 07:25:37;;;;;;;6.13;3.85;;;;;;;16.09;37.59;103807.03;5007617;28;20041;-78
2022/03/19 07:28:07;;;;;;;7.38;3.72;;;;;;;16.29;37.32;103794.25;5037209;28;20412;-78
2022/03/19 07:30:34;;;;;;;5.88;3.80;;;;;;;16.48;37.45;103798.88;5047694;28;20053;-78
2022/03/19 07:33:01;;;;;;;5.70;3.45;;;;;;;16.65;37.59;103790.81;5050143;28;20060;-78
2022/03/19 07:35:28;;;;;;;7.20;3.70;;;;;;;16.84;36.58;103785.38;5047474;28;20053;-79
2022/03/19 07:37:57;;;;;;;7.30;4.07;;;;;;;17.00;36.11;103779.09;5049648;28;20052;-78
2022/03/19 07:43:12;;;;;;;5.88;3.40;;;;;;;17.28;35.37;103775.03;5048059;28;20076;-78
2022/03/19 07:45:41;;;;;;;5.07;3.25;;;;;;;17.38;35.27;103779.97;5043905;28;20451;-77
2022/03/19 07:48:09;;;;;;;5.03;3.53;;;;;;;17.46;34.92;103772.25;5031869;28;20094;-78
2022/03/19 07:50:52;;;;;;;5.63;3.35;;;;;;;17.51;34.32;103769.28;5039539;28;20049;-78
2022/03/19 07:53:19;;;;;;;6.10;3.80;;;;;;;17.53;33.98;103770.13;5049543;28;20436;-77
2022/03/19 07:55:46;;;;;;;4.95;3.45;;;;;;;17.55;33.66;103764.50;5042384;28;20077;-78
2022/03/19 07:58:17;;;;;;;6.70;3.75;;;;;;;17.54;33.37;103765.50;5049454;28;20049;-78
2022/03/19 08:00:44;;;;;;;5.65;3.00;;;;;;;17.51;33.75;103763.81;5050593;28;20082;-78
2022/03/19 08:03:12;;;;;;;6.07;3.30;;;;;;;17.49;33.65;103765.72;5051295;28;20045;-78
2022/03/19 08:05:42;;;;;;;5.97;3.42;;;;;;;17.49;33.41;103754.72;5052038;28;20053;-78
2022/03/19 08:08:10;;;;;;;5.20;3.70;;;;;;;17.46;33.49;103758.50;5051020;28;20508;-79
2022/03/19 08:10:37;;;;;;;5.45;3.40;;;;;;;17.43;33.22;103763.28;5052697;28;20151;-78
2022/03/19 08:13:06;;;;;;;7.60;3.53;;;;;;;17.40;33.21;103761.56;5044316;28;20076;-78
2022/03/19 08:15:34;;;;;;;6.68;3.72;;;;;;;17.34;33.13;103761.88;5046438;28;20098;-78
2022/03/19 08:18:02;;;;;;;7.13;3.78;;;;;;;17.30;33.30;103754.75;5036453;28;20465;-78
2022/03/19 08:20:29;;;;;;;5.40;3.63;;;;;;;17.28;32.97;103766.78;5051238;28;20071;-79
2022/03/19 08:22:56;;;;;;;6.13;3.53;;;;;;;17.24;33.33;103765.16;5052938;28;20045;-79
2022/03/19 08:25:23;;;;;;;6.10;3.25;;;;;;;17.22;33.25;103765.22;5050566;28;20041;-79
2022/03/19 08:27:54;;;;;;;4.63;2.95;;;;;;;17.19;33.01;103775.47;5052049;28;20045;-79
2022/03/19 08:30:21;;;;;;;6.13;3.63;;;;;;;17.22;32.86;103765.22;5050783;28;20053;-79
2022/03/19 08:32:48;;;;;;;5.38;3.03;;;;;;;17.23;32.99;103771.59;5038447;28;20045;-81
2022/03/19 08:35:14;;;;;;;6.90;3.38;;;;;;;17.19;33.09;103762.66;5044178;28;20060;-80
2022/03/19 08:37:48;;;;;;;7.03;3.30;;;;;;;17.19;32.75;103757.16;5029487;28;20049;-79
2022/03/19 08:40:19;;;;;;;5.43;3.42;;;;;;;17.17;32.84;103763.66;5049503;28;20151;-78
2022/03/19 08:42:51;;;;;;;5.80;3.47;;;;;;;17.17;32.43;103760.94;5048066;28;20106;-79
2022/03/19 08:45:20;;;;;;;6.05;3.90;;;;;;;17.12;32.25;103758.41;5032221;28;20095;-78
2022/03/19 08:47:47;;;;;;;7.28;3.67;;;;;;;17.10;32.06;103763.97;5043491;28;20053;-79
2022/03/19 08:50:17;;;;;;;5.57;3.35;;;;;;;17.08;32.03;103759.50;5040265;28;20412;-78
2022/03/19 08:52:44;;;;;;;6.22;3.35;;;;;;;17.02;32.29;103755.22;5034177;28;20099;-78
2022/03/19 08:55:11;;;;;;;5.22;3.63;;;;;;;17.01;32.22;103758.03;5050207;28;20055;-79
2022/03/19 08:57:38;;;;;;;7.05;3.33;;;;;;;16.97;31.93;103750.91;5034459;28;20052;-79
2022/03/19 09:00:07;;;;;;;7.68;3.70;;;;;;;16.94;32.19;103751.06;5049603;28;20045;-79
2022/03/19 09:02:40;;;;;;;6.53;3.20;;;;;;;16.90;32.06;103750.31;5047527;28;20111;-79
2022/03/19 09:05:07;;;;;;;6.72;3.70;;;;;;;16.82;32.00;103743.41;5016697;28;20057;-80
2022/03/19 09:07:34;;;;;;;6.93;3.42;;;;;;;16.79;32.06;103751.78;5044392;28;20049;-79
2022/03/19 09:10:01;;;;;;;6.40;3.67;;;;;;;16.80;31.82;103740.72;5048828;28;20057;-79
2022/03/19 09:12:36;;;;;;;7.38;3.88;;;;;;;16.79;31.94;103744.44;5034022;28;20041;-76
2022/03/19 09:15:07;;;;;;;5.97;3.30;;;;;;;16.77;32.07;103738.13;5049712;28;20059;-78
2022/03/19 09:17:34;;;;;;;6.53;3.63;;;;;;;16.80;32.14;103731.63;5046076;28;20052;-77
2022/03/19 09:20:01;;;;;;;6.20;3.40;;;;;;;16.83;32.05;103739.69;5048987;28;20049;-77
2022/03/19 09:22:30;;;;;;;5.72;3.50;;;;;;;16.84;31.89;103731.41;5051722;28;20048;-77
2022/03/19 09:24:59;;;;;;;7.30;3.88;;;;;;;16.77;31.60;103721.69;5049617;28;20051;-78
2022/03/19 09:27:26;;;;;;;6.40;3.30;;;;;;;16.80;31.43;103717.91;5050298;28;20611;-77
2022/03/19 09:29:53;;;;;;;5.68;3.00;;;;;;;16.84;31.84;103717.66;5049151;28;20045;-78
2022/03/19 09:32:19;;;;;;;5.88;3.05;;;;;;;16.89;31.59;103717.44;5032752;28;20060;-77
2022/03/19 09:34:49;;;;;;;6.15;3.08;;;;;;;16.87;31.19;103709.31;5032512;28;20049;-77
2022/03/19 09:37:17;;;;;;;6.65;3.17;;;;;;;16.92;31.06;103711.81;5046251;28;20524;-77
2022/03/19 09:39:46;;;;;;;7.05;3.20;;;;;;;16.95;30.87;103707.06;5032649;28;20044;-77
2022/03/19 09:42:13;;;;;;;5.25;3.00;;;;;;;16.98;30.54;103704.16;5049180;28;20053;-78
2022/03/19 09:44:43;;;;;;;5.68;2.75;;;;;;;17.01;30.66;103695.78;5046393;28;20048;-78
2022/03/19 09:47:12;;;;;;;5.75;2.72;;;;;;;17.03;30.79;103687.50;5048070;28;20068;-78
2022/03/19 09:49:39;;;;;;;5.25;2.80;;;;;;;17.05;30.27;103688.28;5031889;28;20052;-79
2022/03/19 09:52:06;;;;;;;6.47;2.80;;;;;;;17.09;30.31;103679.84;5046387;28;20489;-77
2022/03/19 09:54:33;;;;;;;5.00;2.60;;;;;;;17.13;30.13;103680.56;5032400;28;20057;-82
2022/03/19 09:57:00;;;;;;;4.03;2.40;;;;;;;17.22;30.14;103673.72;5049330;28;20060;-79
2022/03/19 09:59:27;;;;;;;5.10;2.53;;;;;;;17.30;30.16;103672.38;5032152;28;20102;-78
2022/03/19 10:01:55;;;;;;;4.32;2.35;;;;;;;17.35;29.45;103664.81;5050286;28;20102;-79
2022/03/19 10:04:22;;;;;;;4.93;2.58;;;;;;;17.37;28.85;103661.97;5048019;28;20500;-77
2022/03/19 10:09:47;;;;;;;4.10;2.35;;;;;;;17.48;27.50;103649.47;5045806;28;20439;-76
2022/03/19 10:12:28;;;;;;;5.13;2.22;;;;;;;17.47;27.66;103644.03;5050344;28;20041;-77
2022/03/19 10:14:57;;;;;;;5.82;2.50;;;;;;;17.51;27.94;103645.69;5033228;28;20068;-77
2022/03/19 10:17:28;;;;;;;3.50;1.90;;;;;;;17.55;27.91;103640.88;5049832;28;20051;-77
2022/03/19 10:20:06;;;;;;;3.70;2.27;;;;;;;17.59;28.10;103642.53;5046537;28;20055;-77
2022/03/19 10:22:34;;;;;;;4.60;1.83;;;;;;;17.62;28.02;103640.56;5056708;28;20045;-77
2022/03/19 10:25:05;;;;;;;3.40;1.70;;;;;;;17.70;27.17;103635.56;5026226;28;20053;-78
2022/03/19 10:27:39;;;;;;;6.63;1.98;;;;;;;17.76;26.53;103635.22;5040489;28;20085;-77
2022/03/19 10:30:21;;;;;;;2.35;1.13;;;;;;;17.81;26.45;103629.47;5037836;28;20098;-77
2022/03/19 10:32:58;;;;;;;3.55;1.85;;;;;;;17.81;24.29;103621.22;5034849;28;20412;-78
2022/03/19 10:35:33;;;;;;;5.00;2.28;;;;;;;17.83;25.57;103617.41;5011384;28;20129;-79
2022/03/19 10:38:16;;;;;;;3.95;2.47;;;;;;;17.85;25.77;103618.25;5050101;28;20369;-78
2022/03/19 10:40:47;;;;;;;4.32;2.60;;;;;;;17.84;25.78;103619.19;5028816;28;20041;-78
2022/03/19 10:43:18;;;;;;;5.68;2.88;;;;;;;17.83;25.19;103622.03;5050468;28;20041;-78
2022/03/19 10:45:48;;;;;;;6.00;3.70;;;;;;;17.82;26.10;103598.25;5044696;28;20045;-77
2022/03/19 10:48:19;;;;;;;5.22;3.10;;;;;;;17.85;25.75;103609.09;5048651;28;20045;-78
2022/03/19 10:50:46;;;;;;;4.47;3.03;;;;;;;17.90;26.97;103606.09;5037972;28;20541;-78
2022/03/19 10:53:16;;;;;;;6.90;3.13;;;;;;;17.88;26.90;103597.91;5049761;28;20045;-78
2022/03/19 10:55:43;;;;;;;5.75;3.55;;;;;;;17.91;26.56;103602.38;5035928;28;20057;-78
2022/03/19 10:58:11;;;;;;;4.65;2.95;;;;;;;17.95;26.62;103590.25;5044422;28;20049;-78
2022/03/19 11:01:01;;;;;;;5.07;3.13;;;;;;;17.95;26.24;103601.25;5048820;28;20084;-78
2022/03/19 11:03:30;;;;;;;6.80;3.42;;;;;;;17.94;26.37;103589.38;5037963;28;20057;-79
2022/03/19 11:06:05;;;;;;;5.93;3.55;;;;;;;17.94;25.23;103577.47;5044282;28;20400;-78
2022/03/19 11:08:38;;;;;;;4.82;3.30;;;;;;;17.93;25.47;103581.19;5047538;28;20407;-79
2022/03/19 11:11:10;;;;;;;8.25;3.70;;;;;;;17.96;25.35;103572.75;5037869;28;20055;-79
2022/03/19 11:13:42;;;;;;;5.90;3.05;;;;;;;17.91;25.18;103574.88;5049558;28;20135;-79
2022/03/19 11:16:37;;;;;;;6.43;3.42;;;;;;;17.88;25.02;103571.31;5037503;28;20044;-79
2022/03/19 11:19:04;;;;;;;4.95;2.80;;;;;;;17.86;25.56;103572.41;5035331;28;20523;-80
2022/03/19 11:21:32;;;;;;;5.68;2.97;;;;;;;17.87;25.69;103566.78;5052612;28;20048;-80
2022/03/19 11:24:23;;;;;;;6.10;3.28;;;;;;;17.87;23.94;103558.56;5033575;28;20049;-79
2022/03/19 11:26:53;;;;;;;5.03;3.00;;;;;;;17.84;25.56;103552.34;5048372;28;20610;-72
2022/03/19 11:29:20;;;;;;;5.15;2.97;;;;;;;17.82;25.57;103543.28;5047246;28;20648;-71
2022/03/19 11:32:01;;;;;;;5.25;2.78;;;;;;;17.84;25.36;103544.09;5050420;28;20060;-73
2022/03/19 11:34:43;;;;;;;5.07;2.78;;;;;;;17.91;25.19;103533.66;5052711;28;20045;-72
2022/03/19 11:37:10;;;;;;;5.32;2.92;;;;;;;17.89;25.47;103533.72;5052484;28;20051;-75
2022/03/19 11:39:37;;;;;;;6.35;3.17;;;;;;;17.94;25.37;103528.00;5047657;28;20045;-75
2022/03/19 11:42:09;;;;;;;5.32;3.15;;;;;;;17.94;24.66;103525.25;5041903;28;20067;-73
2022/03/19 11:44:49;;;;;;;5.25;3.08;;;;;;;17.93;23.43;103528.97;5035348;28;20427;-73
2022/03/19 11:47:17;;;;;;;4.50;2.90;;;;;;;17.89;24.01;103520.00;5053099;28;20045;-73